SBOSBO PHL / KPHL
Speedbird OnlineSpeedbird Online PHL / KPHL

Philadelphia International Airport
02:47 11.8°C

Location Philadelphia, United States
Latitude: 39.87189865112305
Longitude: -75.24109649658203
Web Airport Website | Wikipedia
Altitude 11 Meter / 36 Feet
Distance 5,728 KM / 3,559 Miles
from London.
Time Zone UTC -4 hours (America/New_York)
Codes IATA: PHL
ICAO: KPHL
Currency £1 equals USD 1.13
Runways
RunwayLength (m)Surface
081524Asphalt
09L2896Asphalt
09R3202Asphalt
171664Asphalt
261524Asphalt
27L3202Asphalt
27R2896Asphalt
351664Asphalt
Radio
TypeDescriptionFrequency
APPAPP123.8
ARRPRM120.425
ATISATIS133.4
CLDCLNC DEL118.85
DEPDEP119.75
GNDGND121.9
TWRTWR118.5
UNICUNICOM122.95
Live ATC
METAR KPHL 060554Z 33003KT 10SM FEW055 14/12 A2996 RMK AO2 SLP146 T01390117 10178 20133 51005
TAF KPHL 060530Z 0606/0712 03003KT P6SM FEW035 TEMPO 0609/0612 5SM BR FM061700 25005KT P6SM SCT250
Weather As Of 06 Oct 2022 02:46
Description Few clouds
Wind 6 km/h from North-West (330°)
Cloud Cover 20%
Precipitation Rain: none, Snow: none
Sunrise 07:01
Sunset 18:35
Lounges British Airways Lounge (Open), Concourse A
American Airlines Admirals Club TEMPORARILY CLOSED, Terminal A
American Airlines Admirals Club TEMPORARILY CLOSED, Terminal A West
American Airlines Admirals Club, Terminal B/C
American Airlines Admirals Club, Terminal F
Rotations During the last 90 days there were
61 flights from LHR
60 flights to LHR


© 2017-2022 Speedbird Online